createdAt,value
2018-12-21T00:01:54.616Z,6.17
2018-12-21T00:04:22.467Z,5.47
2018-12-21T00:06:50.146Z,5.30
2018-12-21T00:09:18.150Z,5.20
2018-12-21T00:11:45.809Z,5.07
2018-12-21T00:14:13.438Z,4.57
2018-12-21T00:16:41.102Z,4.93
2018-12-21T00:19:08.720Z,5.20
2018-12-21T00:21:36.326Z,4.30
2018-12-21T00:24:03.936Z,5.00
2018-12-21T00:26:31.593Z,4.83
2018-12-21T00:28:59.263Z,4.97
2018-12-21T00:31:33.047Z,5.13
2018-12-21T00:34:06.356Z,4.80
2018-12-21T00:36:39.744Z,3.90
2018-12-21T00:39:13.100Z,4.57
2018-12-21T00:41:40.315Z,4.13
2018-12-21T00:44:09.900Z,4.57
2018-12-21T00:46:38.573Z,4.10
2018-12-21T00:49:06.684Z,4.30
2018-12-21T00:51:34.479Z,4.53
2018-12-21T00:54:02.234Z,4.00
2018-12-21T00:56:29.815Z,4.67
2018-12-21T00:58:57.415Z,3.83
2018-12-21T01:01:25.167Z,3.87
2018-12-21T01:03:52.833Z,4.03
2018-12-21T01:06:20.400Z,3.97
2018-12-21T01:08:48.056Z,3.60
2018-12-21T01:11:15.668Z,3.53
2018-12-21T01:13:43.280Z,3.43
2018-12-21T01:16:10.862Z,4.20
2018-12-21T01:18:38.906Z,3.73
2018-12-21T01:21:07.039Z,3.43
2018-12-21T01:23:34.775Z,3.83
2018-12-21T01:26:02.373Z,4.07
2018-12-21T01:28:30.012Z,4.03
2018-12-21T01:30:57.617Z,3.80
2018-12-21T01:33:25.233Z,3.93
2018-12-21T01:35:52.831Z,3.27
2018-12-21T01:38:20.404Z,3.53
2018-12-21T01:40:47.951Z,3.50
2018-12-21T01:43:15.608Z,3.53
2018-12-21T01:45:43.171Z,3.33
2018-12-21T01:48:10.743Z,3.13
2018-12-21T01:50:38.328Z,2.90
2018-12-21T01:53:05.956Z,3.37
2018-12-21T01:55:33.496Z,2.90
2018-12-21T01:58:01.203Z,3.43
2018-12-21T02:00:28.859Z,3.33
2018-12-21T02:02:56.413Z,3.63
2018-12-21T02:05:24.054Z,3.13
2018-12-21T02:07:51.614Z,3.97
2018-12-21T02:10:19.201Z,3.23
2018-12-21T02:12:46.760Z,3.47
2018-12-21T02:15:14.408Z,3.13
2018-12-21T02:17:41.979Z,3.10
2018-12-21T02:20:09.626Z,3.43
2018-12-21T02:22:37.336Z,3.40
2018-12-21T02:25:04.942Z,3.10
2018-12-21T02:27:32.661Z,3.30
2018-12-21T02:30:00.244Z,3.43
2018-12-21T02:32:29.811Z,3.30
2018-12-21T02:34:57.508Z,3.60
2018-12-21T02:37:25.193Z,3.27
2018-12-21T02:39:52.928Z,3.07
2018-12-21T02:42:20.480Z,2.93
2018-12-21T02:44:48.053Z,3.53
2018-12-21T02:47:16.029Z,3.03
2018-12-21T02:49:43.722Z,3.50
2018-12-21T02:52:11.342Z,2.97
2018-12-21T02:54:39.773Z,2.83
2018-12-21T02:57:07.332Z,2.87
2018-12-21T02:59:34.907Z,2.90
2018-12-21T03:02:02.608Z,2.93
2018-12-21T03:04:30.193Z,2.90
2018-12-21T03:06:58.186Z,3.30
2018-12-21T03:09:25.911Z,3.00
2018-12-21T03:11:53.494Z,3.00
2018-12-21T03:14:21.095Z,2.47
2018-12-21T03:16:48.687Z,2.87
2018-12-21T03:19:16.250Z,2.73
2018-12-21T03:21:43.837Z,2.80
2018-12-21T03:24:11.386Z,2.30
2018-12-21T03:26:38.982Z,2.90
2018-12-21T03:29:06.574Z,2.53
2018-12-21T03:31:34.155Z,2.70
2018-12-21T03:34:01.732Z,2.90
2018-12-21T03:36:29.328Z,2.00
2018-12-21T03:38:56.928Z,3.00
2018-12-21T03:41:24.601Z,2.80
2018-12-21T03:43:52.163Z,2.80
2018-12-21T03:46:19.747Z,2.93
2018-12-21T03:48:47.291Z,3.03
2018-12-21T03:51:15.159Z,2.60
2018-12-21T03:53:42.725Z,2.63
2018-12-21T03:56:11.552Z,3.00
2018-12-21T03:58:39.188Z,2.40
2018-12-21T04:01:06.878Z,2.33
2018-12-21T04:03:34.544Z,2.97
2018-12-21T04:06:02.405Z,3.20
2018-12-21T04:08:31.611Z,2.90
2018-12-21T04:11:01.439Z,2.90
2018-12-21T04:13:29.423Z,3.17
2018-12-21T04:15:57.007Z,3.33
2018-12-21T04:18:24.647Z,3.00
2018-12-21T04:20:52.238Z,3.00
2018-12-21T04:23:19.825Z,3.43
2018-12-21T04:25:47.456Z,3.77
2018-12-21T04:28:15.061Z,5.23
2018-12-21T04:30:42.647Z,3.60
2018-12-21T04:33:10.240Z,3.33
2018-12-21T04:35:37.799Z,3.50
2018-12-21T04:38:05.413Z,3.70
2018-12-21T04:40:32.955Z,3.63
2018-12-21T04:43:00.661Z,3.63
2018-12-21T04:45:28.246Z,3.10
2018-12-21T04:47:55.838Z,3.60
2018-12-21T04:50:23.443Z,3.00
2018-12-21T04:52:51.182Z,4.13
2018-12-21T04:55:18.880Z,3.47
2018-12-21T04:57:47.106Z,3.67
2018-12-21T05:00:15.002Z,4.30
2018-12-21T05:02:43.155Z,4.23
2018-12-21T05:05:10.771Z,3.50
2018-12-21T05:07:39.251Z,3.83
2018-12-21T05:10:07.640Z,3.87
2018-12-21T05:12:35.267Z,4.10
2018-12-21T05:15:02.899Z,4.27
2018-12-21T05:17:31.270Z,4.20
2018-12-21T05:19:58.919Z,4.37
2018-12-21T05:22:26.518Z,4.00
2018-12-21T05:24:54.230Z,4.67
2018-12-21T05:27:21.812Z,4.00
2018-12-21T05:29:49.393Z,4.03
2018-12-21T05:32:16.975Z,4.97
2018-12-21T05:34:44.722Z,4.57
2018-12-21T05:37:13.051Z,4.77
2018-12-21T05:39:40.641Z,4.93
2018-12-21T05:42:08.195Z,5.90
2018-12-21T05:44:36.659Z,5.67
2018-12-21T05:47:04.551Z,4.40
2018-12-21T05:49:32.151Z,4.20
2018-12-21T05:51:59.763Z,4.53
2018-12-21T05:54:27.451Z,4.30
2018-12-21T05:56:56.152Z,3.70
2018-12-21T05:59:23.834Z,3.47
2018-12-21T06:01:51.496Z,4.20
2018-12-21T06:04:19.077Z,3.97
2018-12-21T06:06:46.629Z,3.83
2018-12-21T06:09:14.201Z,3.77
2018-12-21T06:11:41.851Z,3.30
2018-12-21T06:14:09.616Z,3.83
2018-12-21T06:16:37.151Z,4.20
2018-12-21T06:19:04.703Z,4.00
2018-12-21T06:21:32.299Z,4.07
2018-12-21T06:23:59.857Z,3.73
2018-12-21T06:26:27.438Z,3.87
2018-12-21T06:28:54.984Z,3.60
2018-12-21T06:31:22.556Z,5.07
2018-12-21T06:33:50.116Z,4.40
2018-12-21T06:36:17.704Z,3.93
2018-12-21T06:38:45.260Z,4.97
2018-12-21T06:41:12.870Z,5.00
2018-12-21T06:43:40.471Z,7.70
2018-12-21T06:46:14.088Z,5.10
2018-12-21T06:48:37.717Z,5.03
2018-12-21T06:51:05.324Z,6.10
2018-12-21T06:53:32.903Z,6.13
2018-12-21T06:56:00.528Z,6.30
2018-12-21T06:58:28.091Z,6.70
2018-12-21T07:00:55.805Z,6.77
2018-12-21T07:03:23.427Z,6.27
2018-12-21T07:05:51.039Z,7.13
2018-12-21T07:08:18.587Z,7.10
2018-12-21T07:10:46.167Z,7.37
2018-12-21T07:13:13.767Z,7.23
2018-12-21T07:15:42.361Z,8.60
2018-12-21T07:18:09.952Z,7.63
2018-12-21T07:20:37.547Z,7.83
2018-12-21T07:23:05.145Z,8.10
2018-12-21T07:25:32.732Z,7.17
2018-12-21T07:28:00.312Z,6.50
2018-12-21T07:30:27.909Z,7.17
2018-12-21T07:32:55.775Z,5.87
2018-12-21T07:35:23.367Z,6.40
2018-12-21T07:37:50.948Z,6.07
2018-12-21T07:40:18.514Z,6.03
2018-12-21T07:42:46.082Z,5.63
2018-12-21T07:45:13.659Z,4.73
2018-12-21T07:47:41.278Z,4.90
2018-12-21T07:50:08.933Z,5.43
2018-12-21T07:52:36.569Z,5.03
2018-12-21T07:55:05.623Z,5.27
2018-12-21T07:57:33.200Z,4.50
2018-12-21T08:00:00.751Z,4.00
2018-12-21T08:02:28.322Z,3.97
2018-12-21T08:04:55.899Z,4.13
2018-12-21T08:07:23.521Z,4.00
2018-12-21T08:09:51.128Z,3.50
2018-12-21T08:12:18.718Z,3.97
2018-12-21T08:14:46.258Z,3.20
2018-12-21T08:17:13.819Z,3.80
2018-12-21T08:19:41.373Z,3.17
2018-12-21T08:22:08.979Z,3.30
2018-12-21T08:24:36.543Z,3.90
2018-12-21T08:27:04.131Z,4.40
2018-12-21T08:29:31.706Z,3.17
2018-12-21T08:31:59.288Z,3.60
2018-12-21T08:34:26.947Z,3.57
2018-12-21T08:36:54.555Z,3.17
2018-12-21T08:39:22.183Z,3.63
2018-12-21T08:41:49.731Z,3.20
2018-12-21T08:44:17.474Z,2.90
2018-12-21T08:46:46.244Z,2.83
2018-12-21T08:49:14.608Z,3.47
2018-12-21T08:51:44.384Z,3.20
2018-12-21T08:54:11.951Z,2.93
2018-12-21T08:56:40.002Z,3.27
2018-12-21T08:59:07.659Z,2.27
2018-12-21T09:01:35.248Z,3.17
2018-12-21T09:04:04.314Z,2.77
2018-12-21T09:06:31.941Z,2.57
2018-12-21T09:09:00.443Z,2.73
2018-12-21T09:11:28.057Z,2.47
2018-12-21T09:13:55.633Z,2.00
2018-12-21T09:16:23.179Z,2.60
2018-12-21T09:18:50.774Z,2.93
2018-12-21T09:21:18.375Z,2.20
2018-12-21T09:23:46.753Z,2.03
2018-12-21T09:26:14.316Z,2.10
2018-12-21T09:28:41.879Z,2.03
2018-12-21T09:31:10.163Z,2.83
2018-12-21T09:33:37.785Z,2.20
2018-12-21T09:36:05.404Z,2.40
2018-12-21T09:38:34.011Z,1.87
2018-12-21T09:41:01.600Z,2.17
2018-12-21T09:43:29.176Z,2.20
2018-12-21T09:45:56.727Z,2.37
2018-12-21T09:48:24.298Z,3.30
2018-12-21T09:50:52.695Z,2.83
2018-12-21T09:53:20.283Z,2.90
2018-12-21T09:55:48.703Z,2.33
2018-12-21T09:58:16.388Z,1.67
2018-12-21T10:00:43.963Z,1.80
2018-12-21T10:03:11.494Z,1.80
2018-12-21T10:05:39.059Z,2.47
2018-12-21T10:08:06.609Z,1.90
2018-12-21T10:10:34.180Z,3.13
2018-12-21T10:13:01.741Z,1.73
2018-12-21T10:15:29.327Z,2.30
2018-12-21T10:17:57.398Z,2.10
2018-12-21T10:20:24.974Z,1.57
2018-12-21T10:22:52.520Z,1.17
2018-12-21T10:25:20.150Z,1.47
2018-12-21T10:27:47.749Z,1.40
2018-12-21T10:30:15.312Z,1.37
2018-12-21T10:32:42.850Z,1.37
2018-12-21T10:35:10.453Z,1.30
2018-12-21T10:37:38.010Z,1.40
2018-12-21T10:40:06.551Z,1.20
2018-12-21T10:42:34.135Z,1.03
2018-12-21T10:45:01.756Z,1.00
2018-12-21T10:47:29.316Z,0.97
2018-12-21T10:49:56.895Z,0.90
2018-12-21T10:52:24.453Z,1.13
2018-12-21T10:54:52.137Z,0.93
2018-12-21T10:57:19.848Z,1.27
2018-12-21T10:59:47.426Z,1.10
2018-12-21T11:04:48.774Z,1.10
2018-12-21T11:07:16.373Z,1.20
2018-12-21T11:09:44.012Z,0.77
2018-12-21T11:12:11.579Z,0.97
2018-12-21T11:14:39.137Z,0.80
2018-12-21T11:17:06.721Z,0.80
2018-12-21T11:19:34.296Z,0.53
2018-12-21T11:22:01.915Z,0.90
2018-12-21T11:24:35.443Z,0.83
2018-12-21T11:26:59.088Z,0.80
2018-12-21T11:29:26.635Z,0.90
2018-12-21T11:31:54.246Z,0.90
2018-12-21T11:34:21.836Z,1.10
2018-12-21T11:36:49.459Z,0.70
2018-12-21T11:39:17.028Z,0.83
2018-12-21T11:41:45.083Z,1.23
2018-12-21T11:44:12.631Z,0.80
2018-12-21T11:46:40.961Z,0.97
2018-12-21T11:49:08.507Z,0.80
2018-12-21T11:51:36.123Z,0.90
2018-12-21T11:54:03.796Z,0.73
2018-12-21T11:56:31.392Z,0.90
2018-12-21T11:58:58.951Z,0.90
2018-12-21T12:01:26.534Z,0.80
2018-12-21T12:03:54.101Z,0.80
2018-12-21T12:06:21.685Z,0.90
2018-12-21T12:08:49.226Z,0.80
2018-12-21T12:11:16.857Z,1.00
2018-12-21T12:13:44.467Z,0.80
2018-12-21T12:16:12.054Z,0.60
2018-12-21T12:18:39.623Z,0.50
2018-12-21T12:21:07.176Z,1.20
2018-12-21T12:23:34.776Z,0.80
2018-12-21T12:26:02.334Z,0.57
2018-12-21T12:28:29.901Z,0.47
2018-12-21T12:30:57.478Z,0.30
2018-12-21T12:33:25.066Z,0.50
2018-12-21T12:35:52.615Z,0.50
2018-12-21T12:38:20.197Z,0.53
2018-12-21T12:40:47.737Z,2.90
2018-12-21T12:43:15.359Z,1.03
2018-12-21T12:45:42.955Z,0.50
2018-12-21T12:48:10.534Z,0.60
2018-12-21T12:50:38.136Z,0.60
2018-12-21T12:53:05.804Z,0.50
2018-12-21T12:55:33.384Z,0.60
2018-12-21T12:58:00.938Z,0.60
2018-12-21T13:00:28.508Z,0.83
2018-12-21T13:02:56.114Z,0.67
2018-12-21T13:05:23.679Z,0.60
2018-12-21T13:07:52.444Z,0.73
2018-12-21T13:10:19.986Z,0.93
2018-12-21T13:12:47.570Z,1.50
2018-12-21T13:15:15.109Z,1.03
2018-12-21T13:17:43.779Z,1.20
2018-12-21T13:20:12.216Z,1.07
2018-12-21T13:22:39.819Z,0.70
2018-12-21T13:25:11.471Z,0.97
2018-12-21T13:27:38.131Z,1.10
2018-12-21T13:30:07.833Z,1.00
2018-12-21T13:32:35.386Z,1.10
2018-12-21T13:35:02.990Z,1.23
2018-12-21T13:37:30.602Z,1.23
2018-12-21T13:39:58.208Z,0.90
2018-12-21T13:42:26.910Z,1.30
2018-12-21T13:44:54.643Z,1.00
2018-12-21T13:47:22.209Z,1.50
2018-12-21T13:49:49.801Z,3.30
2018-12-21T13:52:17.387Z,2.60
2018-12-21T13:54:44.974Z,1.90
2018-12-21T13:57:12.547Z,2.33
2018-12-21T13:59:40.150Z,0.83
2018-12-21T14:02:07.750Z,1.10
2018-12-21T14:04:35.324Z,0.77
2018-12-21T14:07:02.931Z,1.20
2018-12-21T14:09:31.376Z,1.90
2018-12-21T14:11:58.936Z,1.20
2018-12-21T14:14:27.247Z,1.20
2018-12-21T14:16:55.246Z,1.30
2018-12-21T14:19:22.817Z,1.27
2018-12-21T14:21:51.523Z,1.40
2018-12-21T14:24:19.167Z,1.10
2018-12-21T14:26:47.567Z,1.30
2018-12-21T14:29:15.178Z,1.50
2018-12-21T14:31:42.975Z,2.13
2018-12-21T14:34:10.811Z,1.73
2018-12-21T14:36:38.367Z,1.33
2018-12-21T14:39:08.107Z,2.47
2018-12-21T14:41:35.763Z,1.67
2018-12-21T14:44:03.954Z,2.27
2018-12-21T14:46:31.509Z,1.73
2018-12-21T14:48:59.056Z,1.30
2018-12-21T14:51:26.625Z,1.77
2018-12-21T14:53:54.199Z,1.60
2018-12-21T14:56:22.778Z,1.73
2018-12-21T14:58:50.313Z,1.70
2018-12-21T15:01:17.947Z,2.27
2018-12-21T15:03:45.486Z,2.13
2018-12-21T15:06:13.698Z,1.93
2018-12-21T15:08:41.279Z,2.27
2018-12-21T15:11:09.043Z,2.00
2018-12-21T15:13:36.635Z,2.33
2018-12-21T15:16:04.258Z,2.67
2018-12-21T15:18:31.794Z,2.33
2018-12-21T15:20:59.391Z,2.80
2018-12-21T15:23:26.939Z,2.97
2018-12-21T15:25:54.554Z,2.50
2018-12-21T15:28:22.105Z,2.40
2018-12-21T15:30:50.486Z,2.53
2018-12-21T15:33:18.720Z,2.20
2018-12-21T15:35:46.311Z,3.10
2018-12-21T15:38:13.910Z,2.10
2018-12-21T15:40:41.582Z,2.30
2018-12-21T15:43:09.156Z,2.80
2018-12-21T15:45:36.802Z,2.67
2018-12-21T15:48:04.412Z,2.10
2018-12-21T15:50:31.989Z,2.53
2018-12-21T15:52:59.637Z,2.50
2018-12-21T15:55:27.238Z,2.93
2018-12-21T15:57:54.809Z,2.50
2018-12-21T16:00:22.466Z,2.47
2018-12-21T16:02:50.294Z,2.10
2018-12-21T16:05:18.199Z,2.10
2018-12-21T16:07:46.968Z,1.90
2018-12-21T16:10:14.854Z,1.57
2018-12-21T16:12:42.678Z,1.67
2018-12-21T16:15:10.513Z,1.40
2018-12-21T16:17:38.766Z,2.17
2018-12-21T16:20:09.361Z,19.47
2018-12-21T16:22:42.334Z,8.90
2018-12-21T16:25:06.756Z,1.50
2018-12-21T16:27:34.380Z,1.90
2018-12-21T16:30:02.193Z,3.07
2018-12-21T16:32:29.916Z,2.23
2018-12-21T16:34:57.646Z,2.20
2018-12-21T16:37:25.237Z,2.10
2018-12-21T16:39:52.845Z,1.70
2018-12-21T16:42:20.418Z,1.70
2018-12-21T16:44:48.209Z,1.70
2018-12-21T16:47:15.863Z,2.20
2018-12-21T16:49:43.417Z,1.77
2018-12-21T16:52:10.984Z,2.20
2018-12-21T16:54:38.542Z,1.40
2018-12-21T16:57:06.142Z,1.60
2018-12-21T16:59:33.702Z,1.60
2018-12-21T17:02:01.330Z,1.90
2018-12-21T17:04:28.882Z,1.90
2018-12-21T17:06:56.483Z,1.10
2018-12-21T17:09:24.032Z,1.40
2018-12-21T17:11:51.670Z,0.90
2018-12-21T17:14:19.238Z,1.50
2018-12-21T17:16:46.822Z,1.40
2018-12-21T17:19:14.463Z,1.50
2018-12-21T17:21:42.073Z,2.50
2018-12-21T17:24:09.652Z,1.30
2018-12-21T17:26:37.286Z,1.57
2018-12-21T17:29:04.875Z,1.50
2018-12-21T17:31:32.563Z,1.90
2018-12-21T17:34:00.119Z,2.00
2018-12-21T17:36:27.710Z,1.93
2018-12-21T17:38:55.323Z,2.27
2018-12-21T17:41:22.884Z,1.97
2018-12-21T17:43:50.585Z,2.03
2018-12-21T17:46:18.287Z,2.40
2018-12-21T17:48:45.989Z,2.27
2018-12-21T17:51:13.541Z,2.73
2018-12-21T17:53:41.149Z,3.10
2018-12-21T17:56:09.735Z,2.80
2018-12-21T17:58:37.331Z,3.33
2018-12-21T18:01:05.022Z,3.73
2018-12-21T18:03:32.791Z,3.80
2018-12-21T18:06:00.393Z,3.17
2018-12-21T18:08:28.032Z,3.20
2018-12-21T18:10:55.650Z,4.37
2018-12-21T18:13:23.278Z,4.07
2018-12-21T18:15:50.826Z,2.97
2018-12-21T18:18:25.182Z,4.20
2018-12-21T18:20:48.047Z,3.97
2018-12-21T18:23:17.402Z,3.63
2018-12-21T18:25:45.942Z,4.13
2018-12-21T18:28:17.482Z,6.00
2018-12-21T18:30:45.220Z,3.37
2018-12-21T18:33:12.832Z,2.93
2018-12-21T18:35:40.458Z,2.90
2018-12-21T18:38:08.073Z,2.50
2018-12-21T18:40:35.708Z,2.40
2018-12-21T18:43:06.815Z,2.47
2018-12-21T18:45:34.447Z,2.70
2018-12-21T18:48:02.054Z,1.60
2018-12-21T18:50:29.691Z,1.50
2018-12-21T18:52:57.345Z,2.43
2018-12-21T18:55:24.986Z,2.70
2018-12-21T18:57:52.569Z,1.63
2018-12-21T19:00:20.180Z,1.50
2018-12-21T19:02:48.736Z,1.37
2018-12-21T19:05:16.341Z,1.87
2018-12-21T19:07:43.925Z,2.70
2018-12-21T19:10:11.845Z,1.37
2018-12-21T19:12:39.723Z,1.20
2018-12-21T19:15:07.689Z,1.33
2018-12-21T19:17:35.397Z,1.20
2018-12-21T19:20:05.963Z,0.90
2018-12-21T19:22:33.744Z,1.00
2018-12-21T19:25:01.463Z,1.53
2018-12-21T19:27:30.056Z,1.22
2018-12-21T19:29:57.628Z,1.20
2018-12-21T19:32:25.778Z,1.40
2018-12-21T19:34:53.565Z,1.17
2018-12-21T19:37:21.137Z,1.07
2018-12-21T19:39:50.191Z,0.90
2018-12-21T19:42:18.652Z,0.90
2018-12-21T19:44:46.529Z,1.10
2018-12-21T19:47:15.215Z,0.93
2018-12-21T19:49:43.140Z,1.10
2018-12-21T19:52:10.744Z,1.00
2018-12-21T19:54:38.469Z,0.97
2018-12-21T19:57:06.037Z,1.30
2018-12-21T19:59:33.584Z,1.10
2018-12-21T20:02:01.235Z,0.97
2018-12-21T20:04:28.842Z,1.23
2018-12-21T20:06:56.409Z,1.03
2018-12-21T20:09:24.312Z,1.40
2018-12-21T20:11:52.771Z,1.07
2018-12-21T20:14:20.324Z,1.10
2018-12-21T20:16:48.006Z,0.90
2018-12-21T20:19:15.584Z,1.20
2018-12-21T20:21:43.174Z,1.10
2018-12-21T20:24:10.768Z,0.87
2018-12-21T20:26:38.717Z,0.97
2018-12-21T20:29:06.270Z,0.80
2018-12-21T20:31:33.841Z,0.90
2018-12-21T20:34:01.417Z,1.37
2018-12-21T20:36:29.014Z,1.10
2018-12-21T20:38:58.170Z,1.20
2018-12-21T20:41:25.781Z,0.93
2018-12-21T20:43:54.338Z,1.00
2018-12-21T20:46:21.926Z,1.00
2018-12-21T20:48:49.485Z,0.50
2018-12-21T20:51:17.128Z,1.60
2018-12-21T20:53:44.685Z,0.90
2018-12-21T20:56:12.354Z,1.10
2018-12-21T20:58:40.203Z,1.27
2018-12-21T21:01:07.791Z,1.20
2018-12-21T21:03:35.398Z,1.63
2018-12-21T21:06:03.989Z,0.90
2018-12-21T21:08:31.576Z,1.50
2018-12-21T21:10:59.157Z,0.80
2018-12-21T21:13:26.733Z,1.10
2018-12-21T21:15:54.432Z,1.03
2018-12-21T21:18:21.978Z,1.00
2018-12-21T21:20:49.537Z,1.00
2018-12-21T21:23:17.152Z,1.10
2018-12-21T21:25:44.711Z,1.07
2018-12-21T21:28:12.340Z,1.73
2018-12-21T21:30:39.922Z,1.00
2018-12-21T21:33:07.501Z,1.80
2018-12-21T21:35:35.091Z,1.60
2018-12-21T21:38:02.738Z,1.00
2018-12-21T21:40:30.343Z,0.87
2018-12-21T21:42:58.009Z,1.00
2018-12-21T21:45:25.671Z,1.10
2018-12-21T21:47:53.321Z,1.13
2018-12-21T21:50:20.934Z,1.30
2018-12-21T21:52:49.475Z,0.83
2018-12-21T21:55:17.024Z,1.20
2018-12-21T21:57:44.629Z,0.83
2018-12-21T22:00:12.867Z,1.33
2018-12-21T22:02:40.493Z,1.10
2018-12-21T22:05:08.099Z,1.07
2018-12-21T22:07:35.732Z,1.47
2018-12-21T22:10:05.263Z,1.27
2018-12-21T22:12:32.886Z,1.50
2018-12-21T22:15:00.490Z,1.30
2018-12-21T22:17:28.059Z,1.00
2018-12-21T22:19:55.644Z,1.03
2018-12-21T22:22:23.202Z,1.30
2018-12-21T22:24:50.792Z,0.80
2018-12-21T22:27:18.356Z,1.10
2018-12-21T22:29:45.936Z,0.80
2018-12-21T22:32:13.533Z,1.17
2018-12-21T22:34:41.098Z,0.80
2018-12-21T22:37:08.644Z,0.77
2018-12-21T22:39:36.263Z,1.10
2018-12-21T22:42:03.900Z,1.00
2018-12-21T22:44:31.481Z,0.90
2018-12-21T22:46:59.022Z,1.10
2018-12-21T22:49:26.580Z,1.13
2018-12-21T22:51:54.122Z,1.33
2018-12-21T22:54:21.686Z,1.20
2018-12-21T22:56:49.235Z,1.03
2018-12-21T22:59:16.824Z,1.30
2018-12-21T23:01:44.418Z,1.27
2018-12-21T23:04:11.991Z,1.70
2018-12-21T23:06:39.532Z,1.60
2018-12-21T23:09:07.138Z,1.03
2018-12-21T23:11:34.682Z,1.33
2018-12-21T23:14:02.326Z,1.53
2018-12-21T23:16:29.910Z,1.00
2018-12-21T23:18:57.510Z,1.57
2018-12-21T23:21:25.108Z,1.33
2018-12-21T23:23:52.722Z,1.40
2018-12-21T23:26:20.346Z,1.37
2018-12-21T23:28:47.919Z,0.80
2018-12-21T23:31:15.466Z,0.80
2018-12-21T23:33:43.041Z,1.20
2018-12-21T23:36:10.607Z,1.50
2018-12-21T23:38:38.172Z,0.87
2018-12-21T23:41:05.712Z,1.10
2018-12-21T23:43:33.290Z,1.23
2018-12-21T23:46:00.902Z,1.13
2018-12-21T23:48:28.440Z,0.87
2018-12-21T23:50:56.001Z,1.00
2018-12-21T23:53:23.580Z,0.63
2018-12-21T23:55:51.136Z,0.60
2018-12-21T23:58:18.678Z,0.73
